sensor_id;sensor_type;location;lat;lon;timestamp;temperature;humidity
13148;DHT22;6639;50.956;4.242;2023-05-07T00:01:35;24.90;99.60
13148;DHT22;6639;50.956;4.242;2023-05-07T00:04:02;25.00;99.50
13148;DHT22;6639;50.956;4.242;2023-05-07T00:06:30;25.00;99.50
13148;DHT22;6639;50.956;4.242;2023-05-07T00:08:57;25.10;99.90
13148;DHT22;6639;50.956;4.242;2023-05-07T00:11:24;25.10;99.80
13148;DHT22;6639;50.956;4.242;2023-05-07T00:13:52;25.10;99.90
13148;DHT22;6639;50.956;4.242;2023-05-07T00:16:19;25.00;99.90
13148;DHT22;6639;50.956;4.242;2023-05-07T00:18:46;24.90;99.90
13148;DHT22;6639;50.956;4.242;2023-05-07T00:21:13;25.00;99.90
13148;DHT22;6639;50.956;4.242;2023-05-07T00:23:41;25.00;99.90
13148;DHT22;6639;50.956;4.242;2023-05-07T00:26:08;25.10;99.90
13148;DHT22;6639;50.956;4.242;2023-05-07T00:28:35;25.20;99.90
13148;DHT22;6639;50.956;4.242;2023-05-07T00:31:02;25.20;99.80
13148;DHT22;6639;50.956;4.242;2023-05-07T00:33:29;25.20;99.80
13148;DHT22;6639;50.956;4.242;2023-05-07T00:35:56;25.20;99.70
13148;DHT22;6639;50.956;4.242;2023-05-07T00:38:23;25.10;99.80
13148;DHT22;6639;50.956;4.242;2023-05-07T00:40:51;25.00;99.70
13148;DHT22;6639;50.956;4.242;2023-05-07T00:43:18;24.90;99.70
13148;DHT22;6639;50.956;4.242;2023-05-07T00:45:45;25.00;99.70
13148;DHT22;6639;50.956;4.242;2023-05-07T00:48:12;25.20;99.80
13148;DHT22;6639;50.956;4.242;2023-05-07T00:50:40;25.00;99.70
13148;DHT22;6639;50.956;4.242;2023-05-07T00:53:07;24.80;99.80
13148;DHT22;6639;50.956;4.242;2023-05-07T00:55:35;24.70;99.90
13148;DHT22;6639;50.956;4.242;2023-05-07T00:58:04;24.80;99.90
13148;DHT22;6639;50.956;4.242;2023-05-07T01:00:31;24.90;99.90
13148;DHT22;6639;50.956;4.242;2023-05-07T01:02:58;25.00;99.70
13148;DHT22;6639;50.956;4.242;2023-05-07T01:05:26;25.00;99.70
13148;DHT22;6639;50.956;4.242;2023-05-07T01:07:54;25.10;99.80
13148;DHT22;6639;50.956;4.242;2023-05-07T01:10:22;25.20;99.80
13148;DHT22;6639;50.956;4.242;2023-05-07T01:12:50;25.10;99.80
13148;DHT22;6639;50.956;4.242;2023-05-07T01:15:18;25.10;99.80
13148;DHT22;6639;50.956;4.242;2023-05-07T01:17:45;25.10;99.80
13148;DHT22;6639;50.956;4.242;2023-05-07T01:20:12;25.10;99.90
13148;DHT22;6639;50.956;4.242;2023-05-07T01:22:44;25.10;99.70
13148;DHT22;6639;50.956;4.242;2023-05-07T01:25:11;25.10;99.60
13148;DHT22;6639;50.956;4.242;2023-05-07T01:27:39;25.10;99.80
13148;DHT22;6639;50.956;4.242;2023-05-07T01:30:07;25.00;99.70
13148;DHT22;6639;50.956;4.242;2023-05-07T01:32:37;24.90;99.70
13148;DHT22;6639;50.956;4.242;2023-05-07T01:35:11;24.90;99.70
13148;DHT22;6639;50.956;4.242;2023-05-07T01:37:38;25.00;99.70
13148;DHT22;6639;50.956;4.242;2023-05-07T01:40:08;24.90;99.70
13148;DHT22;6639;50.956;4.242;2023-05-07T01:42:36;24.80;99.60
13148;DHT22;6639;50.956;4.242;2023-05-07T01:45:03;24.80;99.60
13148;DHT22;6639;50.956;4.242;2023-05-07T01:47:30;24.80;99.60
13148;DHT22;6639;50.956;4.242;2023-05-07T01:49:57;24.70;99.60
13148;DHT22;6639;50.956;4.242;2023-05-07T01:52:24;24.70;99.60
13148;DHT22;6639;50.956;4.242;2023-05-07T01:54:51;24.70;99.60
13148;DHT22;6639;50.956;4.242;2023-05-07T01:57:20;24.70;99.60
13148;DHT22;6639;50.956;4.242;2023-05-07T01:59:46;24.60;99.70
13148;DHT22;6639;50.956;4.242;2023-05-07T02:02:13;24.50;99.70
13148;DHT22;6639;50.956;4.242;2023-05-07T02:04:40;24.40;99.80
13148;DHT22;6639;50.956;4.242;2023-05-07T02:07:07;24.30;99.90
13148;DHT22;6639;50.956;4.242;2023-05-07T02:09:34;24.30;99.90
13148;DHT22;6639;50.956;4.242;2023-05-07T02:12:01;24.20;99.90
13148;DHT22;6639;50.956;4.242;2023-05-07T02:14:29;24.10;99.90
13148;DHT22;6639;50.956;4.242;2023-05-07T02:16:56;24.10;99.90
13148;DHT22;6639;50.956;4.242;2023-05-07T02:19:23;24.10;99.90
13148;DHT22;6639;50.956;4.242;2023-05-07T02:21:51;24.20;99.90
13148;DHT22;6639;50.956;4.242;2023-05-07T02:24:18;24.10;99.90
13148;DHT22;6639;50.956;4.242;2023-05-07T02:26:45;24.10;99.90
13148;DHT22;6639;50.956;4.242;2023-05-07T02:29:12;24.00;99.90
13148;DHT22;6639;50.956;4.242;2023-05-07T02:31:40;24.10;99.90
13148;DHT22;6639;50.956;4.242;2023-05-07T02:34:07;24.10;99.90
13148;DHT22;6639;50.956;4.242;2023-05-07T02:36:34;24.20;99.90
13148;DHT22;6639;50.956;4.242;2023-05-07T02:39:01;24.10;99.90
13148;DHT22;6639;50.956;4.242;2023-05-07T02:41:28;24.20;99.90
13148;DHT22;6639;50.956;4.242;2023-05-07T02:43:55;24.20;99.90
13148;DHT22;6639;50.956;4.242;2023-05-07T02:46:22;24.10;99.90
13148;DHT22;6639;50.956;4.242;2023-05-07T02:48:50;24.10;99.90
13148;DHT22;6639;50.956;4.242;2023-05-07T02:51:20;24.10;99.90
13148;DHT22;6639;50.956;4.242;2023-05-07T02:53:48;24.10;99.90
13148;DHT22;6639;50.956;4.242;2023-05-07T02:56:15;24.10;99.90
13148;DHT22;6639;50.956;4.242;2023-05-07T02:58:42;24.10;99.90
13148;DHT22;6639;50.956;4.242;2023-05-07T03:01:09;24.10;99.90
13148;DHT22;6639;50.956;4.242;2023-05-07T03:03:36;23.90;99.90
13148;DHT22;6639;50.956;4.242;2023-05-07T03:06:04;23.90;99.90
13148;DHT22;6639;50.956;4.242;2023-05-07T03:08:32;23.90;99.90
13148;DHT22;6639;50.956;4.242;2023-05-07T03:10:59;23.80;99.90
13148;DHT22;6639;50.956;4.242;2023-05-07T03:13:26;23.90;99.90
13148;DHT22;6639;50.956;4.242;2023-05-07T03:15:53;24.00;99.90
13148;DHT22;6639;50.956;4.242;2023-05-07T03:18:19;24.10;99.90
13148;DHT22;6639;50.956;4.242;2023-05-07T03:20:48;24.10;99.90
13148;DHT22;6639;50.956;4.242;2023-05-07T03:23:16;24.00;99.90
13148;DHT22;6639;50.956;4.242;2023-05-07T03:25:43;24.00;99.90
13148;DHT22;6639;50.956;4.242;2023-05-07T03:28:10;24.00;99.90
13148;DHT22;6639;50.956;4.242;2023-05-07T03:30:37;24.00;99.90
13148;DHT22;6639;50.956;4.242;2023-05-07T03:33:04;24.10;99.90
13148;DHT22;6639;50.956;4.242;2023-05-07T03:35:31;24.10;99.90
13148;DHT22;6639;50.956;4.242;2023-05-07T03:37:57;24.10;99.90
13148;DHT22;6639;50.956;4.242;2023-05-07T03:40:26;24.10;99.90
13148;DHT22;6639;50.956;4.242;2023-05-07T03:42:53;23.90;99.90
13148;DHT22;6639;50.956;4.242;2023-05-07T03:45:20;24.00;99.90
13148;DHT22;6639;50.956;4.242;2023-05-07T03:47:47;23.90;99.90
13148;DHT22;6639;50.956;4.242;2023-05-07T03:50:14;23.90;99.90
13148;DHT22;6639;50.956;4.242;2023-05-07T03:52:41;24.00;99.90
13148;DHT22;6639;50.956;4.242;2023-05-07T03:55:08;24.00;99.90
13148;DHT22;6639;50.956;4.242;2023-05-07T03:57:36;23.90;99.90
13148;DHT22;6639;50.956;4.242;2023-05-07T04:00:04;23.90;99.90
13148;DHT22;6639;50.956;4.242;2023-05-07T04:02:33;23.90;99.90
13148;DHT22;6639;50.956;4.242;2023-05-07T04:05:00;23.90;99.90
13148;DHT22;6639;50.956;4.242;2023-05-07T04:07:27;23.90;99.90
13148;DHT22;6639;50.956;4.242;2023-05-07T04:09:54;24.00;99.90
13148;DHT22;6639;50.956;4.242;2023-05-07T04:12:20;23.90;99.90
13148;DHT22;6639;50.956;4.242;2023-05-07T04:14:49;23.90;99.90
13148;DHT22;6639;50.956;4.242;2023-05-07T04:17:16;24.00;99.90
13148;DHT22;6639;50.956;4.242;2023-05-07T04:19:43;24.10;99.90
13148;DHT22;6639;50.956;4.242;2023-05-07T04:22:10;24.10;99.90
13148;DHT22;6639;50.956;4.242;2023-05-07T04:24:38;24.10;99.90
13148;DHT22;6639;50.956;4.242;2023-05-07T04:27:05;24.10;99.90
13148;DHT22;6639;50.956;4.242;2023-05-07T04:29:32;24.10;99.90
13148;DHT22;6639;50.956;4.242;2023-05-07T04:32:00;24.10;99.90
13148;DHT22;6639;50.956;4.242;2023-05-07T04:34:27;24.10;99.90
13148;DHT22;6639;50.956;4.242;2023-05-07T04:36:54;24.10;99.90
13148;DHT22;6639;50.956;4.242;2023-05-07T04:39:20;24.10;99.90
13148;DHT22;6639;50.956;4.242;2023-05-07T04:41:47;24.20;99.90
13148;DHT22;6639;50.956;4.242;2023-05-07T04:44:14;24.20;99.90
13148;DHT22;6639;50.956;4.242;2023-05-07T04:46:42;24.20;99.90
13148;DHT22;6639;50.956;4.242;2023-05-07T04:49:10;24.20;99.90
13148;DHT22;6639;50.956;4.242;2023-05-07T04:51:37;24.10;99.90
13148;DHT22;6639;50.956;4.242;2023-05-07T04:54:08;24.00;99.90
13148;DHT22;6639;50.956;4.242;2023-05-07T04:56:35;24.00;99.90
13148;DHT22;6639;50.956;4.242;2023-05-07T04:59:02;24.10;99.90
13148;DHT22;6639;50.956;4.242;2023-05-07T05:01:29;24.10;99.90
13148;DHT22;6639;50.956;4.242;2023-05-07T05:03:56;24.10;99.90
13148;DHT22;6639;50.956;4.242;2023-05-07T05:06:24;24.10;99.90
13148;DHT22;6639;50.956;4.242;2023-05-07T05:08:51;24.20;99.90
13148;DHT22;6639;50.956;4.242;2023-05-07T05:11:18;24.20;99.90
13148;DHT22;6639;50.956;4.242;2023-05-07T05:13:45;24.20;99.90
13148;DHT22;6639;50.956;4.242;2023-05-07T05:16:14;24.20;99.90
13148;DHT22;6639;50.956;4.242;2023-05-07T05:18:41;24.10;99.90
13148;DHT22;6639;50.956;4.242;2023-05-07T05:21:08;24.20;99.90
13148;DHT22;6639;50.956;4.242;2023-05-07T05:23:36;24.20;99.90
13148;DHT22;6639;50.956;4.242;2023-05-07T05:26:04;24.20;99.90
13148;DHT22;6639;50.956;4.242;2023-05-07T05:28:31;24.30;99.90
13148;DHT22;6639;50.956;4.242;2023-05-07T05:30:58;24.20;99.90
13148;DHT22;6639;50.956;4.242;2023-05-07T05:33:25;24.40;99.90
13148;DHT22;6639;50.956;4.242;2023-05-07T05:35:53;24.40;99.90
13148;DHT22;6639;50.956;4.242;2023-05-07T05:38:20;24.40;99.90
13148;DHT22;6639;50.956;4.242;2023-05-07T05:40:48;24.50;99.90
13148;DHT22;6639;50.956;4.242;2023-05-07T05:43:15;24.20;99.90
13148;DHT22;6639;50.956;4.242;2023-05-07T05:45:42;23.30;99.90
13148;DHT22;6639;50.956;4.242;2023-05-07T05:48:09;23.00;99.90
13148;DHT22;6639;50.956;4.242;2023-05-07T05:50:36;23.10;99.90
13148;DHT22;6639;50.956;4.242;2023-05-07T05:53:03;23.30;99.90
13148;DHT22;6639;50.956;4.242;2023-05-07T05:55:30;23.70;99.90
13148;DHT22;6639;50.956;4.242;2023-05-07T05:57:59;24.00;99.90
13148;DHT22;6639;50.956;4.242;2023-05-07T06:00:26;24.10;99.90
13148;DHT22;6639;50.956;4.242;2023-05-07T06:02:53;23.90;99.90
13148;DHT22;6639;50.956;4.242;2023-05-07T06:05:26;24.00;99.90
13148;DHT22;6639;50.956;4.242;2023-05-07T06:07:56;24.00;99.90
13148;DHT22;6639;50.956;4.242;2023-05-07T06:10:23;23.90;99.90
13148;DHT22;6639;50.956;4.242;2023-05-07T06:12:49;23.90;99.90
13148;DHT22;6639;50.956;4.242;2023-05-07T06:15:18;24.00;99.90
13148;DHT22;6639;50.956;4.242;2023-05-07T06:17:45;23.90;99.90
13148;DHT22;6639;50.956;4.242;2023-05-07T06:20:12;24.00;99.90
13148;DHT22;6639;50.956;4.242;2023-05-07T06:22:39;24.10;99.90
13148;DHT22;6639;50.956;4.242;2023-05-07T06:25:06;24.10;99.90
13148;DHT22;6639;50.956;4.242;2023-05-07T06:27:33;24.30;99.90
13148;DHT22;6639;50.956;4.242;2023-05-07T06:30:00;24.20;99.90
13148;DHT22;6639;50.956;4.242;2023-05-07T06:32:29;24.20;99.90
13148;DHT22;6639;50.956;4.242;2023-05-07T06:34:56;24.10;99.90
13148;DHT22;6639;50.956;4.242;2023-05-07T06:37:23;23.90;99.90
13148;DHT22;6639;50.956;4.242;2023-05-07T06:39:50;24.00;99.90
13148;DHT22;6639;50.956;4.242;2023-05-07T06:42:17;23.90;99.90
13148;DHT22;6639;50.956;4.242;2023-05-07T06:44:44;23.70;99.90
13148;DHT22;6639;50.956;4.242;2023-05-07T06:47:11;23.60;99.90
13148;DHT22;6639;50.956;4.242;2023-05-07T06:49:40;23.20;99.90
13148;DHT22;6639;50.956;4.242;2023-05-07T06:52:10;22.70;99.90
13148;DHT22;6639;50.956;4.242;2023-05-07T06:54:37;22.80;99.90
13148;DHT22;6639;50.956;4.242;2023-05-07T06:57:04;23.10;99.90
13148;DHT22;6639;50.956;4.242;2023-05-07T06:59:33;23.40;99.90
13148;DHT22;6639;50.956;4.242;2023-05-07T07:02:00;23.70;99.90
13148;DHT22;6639;50.956;4.242;2023-05-07T07:04:27;23.70;99.90
13148;DHT22;6639;50.956;4.242;2023-05-07T07:06:55;23.50;99.90
13148;DHT22;6639;50.956;4.242;2023-05-07T07:09:23;23.50;99.90
13148;DHT22;6639;50.956;4.242;2023-05-07T07:11:50;23.30;99.90
13148;DHT22;6639;50.956;4.242;2023-05-07T07:14:17;23.40;99.90
13148;DHT22;6639;50.956;4.242;2023-05-07T07:16:44;23.30;99.90
13148;DHT22;6639;50.956;4.242;2023-05-07T07:19:12;23.40;99.90
13148;DHT22;6639;50.956;4.242;2023-05-07T07:21:41;23.60;99.90
13148;DHT22;6639;50.956;4.242;2023-05-07T07:24:10;23.60;99.90
13148;DHT22;6639;50.956;4.242;2023-05-07T07:26:37;23.70;99.90
13148;DHT22;6639;50.956;4.242;2023-05-07T07:29:06;23.80;99.90
13148;DHT22;6639;50.956;4.242;2023-05-07T07:31:34;23.70;99.90
13148;DHT22;6639;50.956;4.242;2023-05-07T07:34:02;23.70;99.90
13148;DHT22;6639;50.956;4.242;2023-05-07T07:36:29;23.90;99.90
13148;DHT22;6639;50.956;4.242;2023-05-07T07:38:56;24.00;99.90
13148;DHT22;6639;50.956;4.242;2023-05-07T07:41:24;24.00;99.90
13148;DHT22;6639;50.956;4.242;2023-05-07T07:43:51;23.90;99.90
13148;DHT22;6639;50.956;4.242;2023-05-07T07:46:18;24.10;99.90
13148;DHT22;6639;50.956;4.242;2023-05-07T07:48:45;24.30;99.90
13148;DHT22;6639;50.956;4.242;2023-05-07T07:51:12;24.50;99.90
13148;DHT22;6639;50.956;4.242;2023-05-07T07:53:39;24.20;99.90
13148;DHT22;6639;50.956;4.242;2023-05-07T07:56:06;24.20;99.90
13148;DHT22;6639;50.956;4.242;2023-05-07T07:58:35;24.20;99.90
13148;DHT22;6639;50.956;4.242;2023-05-07T08:01:03;24.10;99.90
13148;DHT22;6639;50.956;4.242;2023-05-07T08:03:30;24.00;99.90
13148;DHT22;6639;50.956;4.242;2023-05-07T08:05:58;24.30;99.90
13148;DHT22;6639;50.956;4.242;2023-05-07T08:08:25;24.50;99.90
13148;DHT22;6639;50.956;4.242;2023-05-07T08:10:52;24.40;99.90
13148;DHT22;6639;50.956;4.242;2023-05-07T08:13:19;24.40;99.90
13148;DHT22;6639;50.956;4.242;2023-05-07T08:15:47;24.40;99.90
13148;DHT22;6639;50.956;4.242;2023-05-07T08:18:15;24.60;99.90
13148;DHT22;6639;50.956;4.242;2023-05-07T08:20:42;24.70;99.90
13148;DHT22;6639;50.956;4.242;2023-05-07T08:23:09;24.60;99.90
13148;DHT22;6639;50.956;4.242;2023-05-07T08:25:36;24.80;99.90
13148;DHT22;6639;50.956;4.242;2023-05-07T08:28:03;24.80;99.90
13148;DHT22;6639;50.956;4.242;2023-05-07T08:30:30;24.80;99.90
13148;DHT22;6639;50.956;4.242;2023-05-07T08:33:00;25.00;99.90
13148;DHT22;6639;50.956;4.242;2023-05-07T08:35:27;25.20;99.90
13148;DHT22;6639;50.956;4.242;2023-05-07T08:37:54;25.20;99.90
13148;DHT22;6639;50.956;4.242;2023-05-07T08:40:25;25.10;99.90
13148;DHT22;6639;50.956;4.242;2023-05-07T08:42:53;25.20;99.90
13148;DHT22;6639;50.956;4.242;2023-05-07T08:45:20;25.30;99.90
13148;DHT22;6639;50.956;4.242;2023-05-07T08:47:50;25.50;99.90
13148;DHT22;6639;50.956;4.242;2023-05-07T08:50:20;25.60;99.90
13148;DHT22;6639;50.956;4.242;2023-05-07T08:52:47;25.50;99.90
13148;DHT22;6639;50.956;4.242;2023-05-07T08:55:15;25.70;99.90
13148;DHT22;6639;50.956;4.242;2023-05-07T08:57:42;25.60;99.90
13148;DHT22;6639;50.956;4.242;2023-05-07T09:00:10;25.80;99.90
13148;DHT22;6639;50.956;4.242;2023-05-07T09:02:37;25.90;99.90
13148;DHT22;6639;50.956;4.242;2023-05-07T09:05:05;26.00;99.90
13148;DHT22;6639;50.956;4.242;2023-05-07T09:07:33;25.90;99.90
13148;DHT22;6639;50.956;4.242;2023-05-07T09:10:02;25.80;99.90
13148;DHT22;6639;50.956;4.242;2023-05-07T09:12:29;25.70;99.90
13148;DHT22;6639;50.956;4.242;2023-05-07T09:14:56;25.70;99.90
13148;DHT22;6639;50.956;4.242;2023-05-07T09:17:23;25.60;99.90
13148;DHT22;6639;50.956;4.242;2023-05-07T09:19:50;25.50;99.90
13148;DHT22;6639;50.956;4.242;2023-05-07T09:22:19;25.50;99.90
13148;DHT22;6639;50.956;4.242;2023-05-07T09:24:49;25.40;99.90
13148;DHT22;6639;50.956;4.242;2023-05-07T09:27:17;25.60;99.90
13148;DHT22;6639;50.956;4.242;2023-05-07T09:29:45;25.50;99.90
13148;DHT22;6639;50.956;4.242;2023-05-07T09:32:12;25.70;99.90
13148;DHT22;6639;50.956;4.242;2023-05-07T09:34:39;25.40;99.90
13148;DHT22;6639;50.956;4.242;2023-05-07T09:37:06;25.30;99.90
13148;DHT22;6639;50.956;4.242;2023-05-07T09:39:40;25.20;99.90
13148;DHT22;6639;50.956;4.242;2023-05-07T09:42:08;25.20;99.90
13148;DHT22;6639;50.956;4.242;2023-05-07T09:44:37;25.50;99.90
13148;DHT22;6639;50.956;4.242;2023-05-07T09:47:05;25.50;99.90
13148;DHT22;6639;50.956;4.242;2023-05-07T09:49:35;25.50;99.90
13148;DHT22;6639;50.956;4.242;2023-05-07T09:52:18;25.70;99.90
13148;DHT22;6639;50.956;4.242;2023-05-07T09:55:00;25.70;99.90
13148;DHT22;6639;50.956;4.242;2023-05-07T09:57:30;25.30;99.90
13148;DHT22;6639;50.956;4.242;2023-05-07T10:00:00;25.10;99.90
13148;DHT22;6639;50.956;4.242;2023-05-07T10:02:30;24.60;99.90
13148;DHT22;6639;50.956;4.242;2023-05-07T10:04:58;24.30;99.90
13148;DHT22;6639;50.956;4.242;2023-05-07T10:07:27;24.10;99.90
13148;DHT22;6639;50.956;4.242;2023-05-07T10:09:57;24.20;99.90
13148;DHT22;6639;50.956;4.242;2023-05-07T10:12:26;24.50;99.90
13148;DHT22;6639;50.956;4.242;2023-05-07T10:14:56;24.70;99.90
13148;DHT22;6639;50.956;4.242;2023-05-07T10:17:23;24.50;99.90
13148;DHT22;6639;50.956;4.242;2023-05-07T10:19:50;24.90;99.90
13148;DHT22;6639;50.956;4.242;2023-05-07T10:22:20;24.90;99.90
13148;DHT22;6639;50.956;4.242;2023-05-07T10:24:49;24.80;99.90
13148;DHT22;6639;50.956;4.242;2023-05-07T10:27:19;24.60;99.90
13148;DHT22;6639;50.956;4.242;2023-05-07T10:29:53;24.30;99.90
13148;DHT22;6639;50.956;4.242;2023-05-07T10:32:38;24.40;99.90
13148;DHT22;6639;50.956;4.242;2023-05-07T10:35:09;24.60;99.90
13148;DHT22;6639;50.956;4.242;2023-05-07T10:37:37;24.70;99.90
13148;DHT22;6639;50.956;4.242;2023-05-07T10:40:05;24.40;99.90
13148;DHT22;6639;50.956;4.242;2023-05-07T10:42:33;24.60;99.90
13148;DHT22;6639;50.956;4.242;2023-05-07T10:45:12;24.90;99.90
13148;DHT22;6639;50.956;4.242;2023-05-07T10:48:08;25.20;99.90
13148;DHT22;6639;50.956;4.242;2023-05-07T10:50:36;25.00;99.90
13148;DHT22;6639;50.956;4.242;2023-05-07T10:53:23;24.80;99.90
13148;DHT22;6639;50.956;4.242;2023-05-07T10:56:24;24.60;99.90
13148;DHT22;6639;50.956;4.242;2023-05-07T10:58:53;24.40;99.90
13148;DHT22;6639;50.956;4.242;2023-05-07T11:01:50;24.60;99.90
13148;DHT22;6639;50.956;4.242;2023-05-07T11:04:19;24.40;99.90
13148;DHT22;6639;50.956;4.242;2023-05-07T11:07:26;24.50;99.90
13148;DHT22;6639;50.956;4.242;2023-05-07T11:10:11;24.60;99.90
13148;DHT22;6639;50.956;4.242;2023-05-07T11:12:54;24.40;99.90
13148;DHT22;6639;50.956;4.242;2023-05-07T11:15:42;24.40;99.90
13148;DHT22;6639;50.956;4.242;2023-05-07T11:18:10;24.70;99.90
13148;DHT22;6639;50.956;4.242;2023-05-07T11:20:50;25.20;99.90
13148;DHT22;6639;50.956;4.242;2023-05-07T11:23:55;25.30;99.90
13148;DHT22;6639;50.956;4.242;2023-05-07T11:26:23;25.50;99.90
13148;DHT22;6639;50.956;4.242;2023-05-07T11:28:51;25.20;99.90
13148;DHT22;6639;50.956;4.242;2023-05-07T11:31:23;25.50;99.90
13148;DHT22;6639;50.956;4.242;2023-05-07T11:33:52;25.40;99.90
13148;DHT22;6639;50.956;4.242;2023-05-07T11:36:22;25.80;99.90
13148;DHT22;6639;50.956;4.242;2023-05-07T11:38:49;25.90;99.90
13148;DHT22;6639;50.956;4.242;2023-05-07T11:41:17;25.90;99.90
13148;DHT22;6639;50.956;4.242;2023-05-07T11:43:58;25.80;99.90
13148;DHT22;6639;50.956;4.242;2023-05-07T11:46:27;25.60;99.90
13148;DHT22;6639;50.956;4.242;2023-05-07T11:48:54;24.70;99.90
13148;DHT22;6639;50.956;4.242;2023-05-07T11:51:24;24.70;99.90
13148;DHT22;6639;50.956;4.242;2023-05-07T11:54:04;24.70;99.90
13148;DHT22;6639;50.956;4.242;2023-05-07T11:56:34;25.00;99.90
13148;DHT22;6639;50.956;4.242;2023-05-07T11:59:06;25.00;99.90
13148;DHT22;6639;50.956;4.242;2023-05-07T12:01:36;25.10;99.90
13148;DHT22;6639;50.956;4.242;2023-05-07T12:04:04;25.00;99.90
13148;DHT22;6639;50.956;4.242;2023-05-07T12:06:36;24.20;99.90
13148;DHT22;6639;50.956;4.242;2023-05-07T12:09:04;24.50;99.90
13148;DHT22;6639;50.956;4.242;2023-05-07T12:11:32;24.60;99.90
13148;DHT22;6639;50.956;4.242;2023-05-07T12:14:00;24.60;99.90
13148;DHT22;6639;50.956;4.242;2023-05-07T12:16:27;24.90;99.90
13148;DHT22;6639;50.956;4.242;2023-05-07T12:18:55;25.20;99.90
13148;DHT22;6639;50.956;4.242;2023-05-07T12:21:24;24.90;99.90
13148;DHT22;6639;50.956;4.242;2023-05-07T12:23:53;25.10;99.90
13148;DHT22;6639;50.956;4.242;2023-05-07T12:26:20;25.40;99.90
13148;DHT22;6639;50.956;4.242;2023-05-07T12:28:47;25.70;99.90
13148;DHT22;6639;50.956;4.242;2023-05-07T12:31:14;25.80;99.90
13148;DHT22;6639;50.956;4.242;2023-05-07T12:33:42;25.80;99.90
13148;DHT22;6639;50.956;4.242;2023-05-07T12:36:13;25.70;99.90
13148;DHT22;6639;50.956;4.242;2023-05-07T12:38:43;25.70;99.90
13148;DHT22;6639;50.956;4.242;2023-05-07T12:41:12;25.80;99.90
13148;DHT22;6639;50.956;4.242;2023-05-07T12:43:38;26.00;99.90
13148;DHT22;6639;50.956;4.242;2023-05-07T12:46:06;25.80;99.90
13148;DHT22;6639;50.956;4.242;2023-05-07T12:48:37;25.70;99.90
13148;DHT22;6639;50.956;4.242;2023-05-07T12:51:06;25.60;99.90
13148;DHT22;6639;50.956;4.242;2023-05-07T12:53:40;25.40;99.90
13148;DHT22;6639;50.956;4.242;2023-05-07T12:56:08;25.30;99.90
13148;DHT22;6639;50.956;4.242;2023-05-07T12:58:50;25.40;99.90
13148;DHT22;6639;50.956;4.242;2023-05-07T13:01:16;25.10;99.90
13148;DHT22;6639;50.956;4.242;2023-05-07T13:03:48;25.20;99.90
13148;DHT22;6639;50.956;4.242;2023-05-07T13:06:15;25.30;99.90
13148;DHT22;6639;50.956;4.242;2023-05-07T13:08:42;25.40;99.90
13148;DHT22;6639;50.956;4.242;2023-05-07T13:11:10;25.40;99.90
13148;DHT22;6639;50.956;4.242;2023-05-07T13:13:39;25.70;99.90
13148;DHT22;6639;50.956;4.242;2023-05-07T13:16:09;25.50;99.90
13148;DHT22;6639;50.956;4.242;2023-05-07T13:18:37;25.90;99.90
13148;DHT22;6639;50.956;4.242;2023-05-07T13:21:05;26.30;99.90
13148;DHT22;6639;50.956;4.242;2023-05-07T13:23:31;26.20;99.90
13148;DHT22;6639;50.956;4.242;2023-05-07T13:25:58;26.30;99.90
13148;DHT22;6639;50.956;4.242;2023-05-07T13:28:26;26.50;99.90
13148;DHT22;6639;50.956;4.242;2023-05-07T13:30:53;26.00;99.90
13148;DHT22;6639;50.956;4.242;2023-05-07T13:33:21;25.50;99.90
13148;DHT22;6639;50.956;4.242;2023-05-07T13:35:49;26.10;99.90
13148;DHT22;6639;50.956;4.242;2023-05-07T13:38:20;26.10;99.90
13148;DHT22;6639;50.956;4.242;2023-05-07T13:40:47;25.70;99.90
13148;DHT22;6639;50.956;4.242;2023-05-07T13:43:14;25.80;99.90
13148;DHT22;6639;50.956;4.242;2023-05-07T13:45:43;26.00;99.90
13148;DHT22;6639;50.956;4.242;2023-05-07T13:48:10;26.40;99.90
13148;DHT22;6639;50.956;4.242;2023-05-07T13:50:38;26.60;99.90
13148;DHT22;6639;50.956;4.242;2023-05-07T13:53:05;26.20;99.90
13148;DHT22;6639;50.956;4.242;2023-05-07T13:55:32;26.00;99.90
13148;DHT22;6639;50.956;4.242;2023-05-07T13:58:00;25.90;99.90
13148;DHT22;6639;50.956;4.242;2023-05-07T14:00:28;25.80;99.90
13148;DHT22;6639;50.956;4.242;2023-05-07T14:02:56;25.40;99.90
13148;DHT22;6639;50.956;4.242;2023-05-07T14:05:23;25.40;99.90
13148;DHT22;6639;50.956;4.242;2023-05-07T14:07:51;25.50;99.90
13148;DHT22;6639;50.956;4.242;2023-05-07T14:10:19;25.90;99.90
13148;DHT22;6639;50.956;4.242;2023-05-07T14:12:46;25.70;99.90
13148;DHT22;6639;50.956;4.242;2023-05-07T14:15:14;25.90;99.90
13148;DHT22;6639;50.956;4.242;2023-05-07T14:17:41;25.70;99.90
13148;DHT22;6639;50.956;4.242;2023-05-07T14:20:09;25.50;99.90
13148;DHT22;6639;50.956;4.242;2023-05-07T14:22:36;25.10;99.90
13148;DHT22;6639;50.956;4.242;2023-05-07T14:25:06;25.50;99.90
13148;DHT22;6639;50.956;4.242;2023-05-07T14:27:33;25.80;99.90
13148;DHT22;6639;50.956;4.242;2023-05-07T14:30:00;25.90;99.90
13148;DHT22;6639;50.956;4.242;2023-05-07T14:32:27;26.00;99.90
13148;DHT22;6639;50.956;4.242;2023-05-07T14:34:54;26.00;99.90
13148;DHT22;6639;50.956;4.242;2023-05-07T14:37:21;25.90;99.90
13148;DHT22;6639;50.956;4.242;2023-05-07T14:39:48;26.20;99.90
13148;DHT22;6639;50.956;4.242;2023-05-07T14:42:17;26.20;99.90
13148;DHT22;6639;50.956;4.242;2023-05-07T14:44:44;26.60;99.90
13148;DHT22;6639;50.956;4.242;2023-05-07T14:47:12;26.60;99.90
13148;DHT22;6639;50.956;4.242;2023-05-07T14:49:39;26.70;99.90
13148;DHT22;6639;50.956;4.242;2023-05-07T14:52:08;26.90;99.90
13148;DHT22;6639;50.956;4.242;2023-05-07T14:54:36;27.20;99.90
13148;DHT22;6639;50.956;4.242;2023-05-07T14:57:04;26.90;99.90
13148;DHT22;6639;50.956;4.242;2023-05-07T14:59:32;26.70;99.90
13148;DHT22;6639;50.956;4.242;2023-05-07T15:01:59;27.30;99.90
13148;DHT22;6639;50.956;4.242;2023-05-07T15:04:37;27.50;99.90
13148;DHT22;6639;50.956;4.242;2023-05-07T15:07:06;27.60;99.90
13148;DHT22;6639;50.956;4.242;2023-05-07T15:09:32;27.10;99.90
13148;DHT22;6639;50.956;4.242;2023-05-07T15:11:59;27.50;99.90
13148;DHT22;6639;50.956;4.242;2023-05-07T15:14:27;27.30;99.90
13148;DHT22;6639;50.956;4.242;2023-05-07T15:16:56;27.50;99.90
13148;DHT22;6639;50.956;4.242;2023-05-07T15:19:23;27.50;99.90
13148;DHT22;6639;50.956;4.242;2023-05-07T15:21:54;27.60;99.90
13148;DHT22;6639;50.956;4.242;2023-05-07T15:24:21;27.90;99.90
13148;DHT22;6639;50.956;4.242;2023-05-07T15:26:48;27.70;99.90
13148;DHT22;6639;50.956;4.242;2023-05-07T15:29:15;27.90;99.90
13148;DHT22;6639;50.956;4.242;2023-05-07T15:31:42;27.80;99.90
13148;DHT22;6639;50.956;4.242;2023-05-07T15:34:10;27.60;99.90
13148;DHT22;6639;50.956;4.242;2023-05-07T15:39:22;27.50;99.90
13148;DHT22;6639;50.956;4.242;2023-05-07T15:41:49;27.70;99.90
13148;DHT22;6639;50.956;4.242;2023-05-07T15:44:16;27.50;99.90
13148;DHT22;6639;50.956;4.242;2023-05-07T15:46:43;27.50;99.90
13148;DHT22;6639;50.956;4.242;2023-05-07T15:49:12;27.50;99.90
13148;DHT22;6639;50.956;4.242;2023-05-07T15:51:39;27.60;99.90
13148;DHT22;6639;50.956;4.242;2023-05-07T15:54:06;27.70;99.90
13148;DHT22;6639;50.956;4.242;2023-05-07T15:56:36;27.50;99.90